createdAt,value
2022-11-22T00:00:44.459Z,23.64
2022-11-22T00:03:15.428Z,23.89
2022-11-22T00:05:46.424Z,24.18
2022-11-22T00:08:17.190Z,24.08
2022-11-22T00:10:50.028Z,23.69
2022-11-22T00:13:21.397Z,23.58
2022-11-22T00:16:02.897Z,23.60
2022-11-22T00:18:33.591Z,23.14
2022-11-22T00:21:09.379Z,22.70
2022-11-22T00:23:40.312Z,22.25
2022-11-22T00:26:13.663Z,21.57
2022-11-22T00:28:44.605Z,21.42
2022-11-22T00:31:15.852Z,21.24
2022-11-22T00:33:46.808Z,21.62
2022-11-22T00:36:18.806Z,21.98
2022-11-22T00:38:49.595Z,21.70
2022-11-22T00:41:20.572Z,21.59
2022-11-22T00:43:51.338Z,21.72
2022-11-22T00:46:22.042Z,21.86
2022-11-22T00:48:53.085Z,21.77
2022-11-22T00:51:23.795Z,21.46
2022-11-22T00:53:55.061Z,21.91
2022-11-22T00:56:26.028Z,21.89
2022-11-22T00:58:57.425Z,21.90
2022-11-22T01:01:28.276Z,21.78
2022-11-22T01:03:59.097Z,21.78
2022-11-22T01:06:30.307Z,21.76
2022-11-22T01:09:01.313Z,21.77
2022-11-22T01:11:32.062Z,21.74
2022-11-22T01:14:02.920Z,21.61
2022-11-22T01:16:33.645Z,21.34
2022-11-22T01:19:04.429Z,21.59
2022-11-22T01:21:35.267Z,21.45
2022-11-22T01:24:06.876Z,21.32
2022-11-22T01:26:38.238Z,21.46
2022-11-22T01:29:09.006Z,21.36
2022-11-22T01:31:39.868Z,21.47
2022-11-22T01:34:10.612Z,21.31
2022-11-22T01:36:41.679Z,21.46
2022-11-22T01:39:12.725Z,21.42
2022-11-22T01:41:43.617Z,21.40
2022-11-22T01:44:26.833Z,21.43
2022-11-22T01:47:03.203Z,21.90
2022-11-22T01:49:34.523Z,22.38
2022-11-22T01:52:10.252Z,22.21
2022-11-22T01:54:43.918Z,22.62
2022-11-22T01:57:18.219Z,22.70
2022-11-22T01:59:56.047Z,22.22
2022-11-22T02:02:27.407Z,22.10
2022-11-22T02:04:59.782Z,22.42
2022-11-22T02:07:39.390Z,22.52
2022-11-22T02:10:11.234Z,22.73
2022-11-22T02:12:42.833Z,22.60
2022-11-22T02:15:14.283Z,22.62
2022-11-22T02:17:45.477Z,22.43
2022-11-22T02:20:18.604Z,22.61
2022-11-22T02:23:06.074Z,22.95
2022-11-22T02:25:43.212Z,22.97
2022-11-22T02:28:17.541Z,22.98
2022-11-22T02:30:48.292Z,22.80
2022-11-22T02:33:19.298Z,22.78
2022-11-22T02:35:50.394Z,22.57
2022-11-22T02:38:29.386Z,22.38
2022-11-22T02:41:11.677Z,22.11
2022-11-22T02:43:44.714Z,21.99
2022-11-22T02:46:23.284Z,22.00
2022-11-22T02:48:54.256Z,22.18
2022-11-22T02:51:25.733Z,22.38
2022-11-22T02:53:58.309Z,22.51
2022-11-22T02:56:29.217Z,22.09
2022-11-22T02:59:00.258Z,22.29
2022-11-22T03:01:32.086Z,21.95
2022-11-22T03:04:03.066Z,21.98
2022-11-22T03:06:33.871Z,21.75
2022-11-22T03:09:05.184Z,21.59
2022-11-22T03:11:36.197Z,21.58
2022-11-22T03:14:06.923Z,21.57
2022-11-22T03:16:37.697Z,21.57
2022-11-22T03:19:08.722Z,21.65
2022-11-22T03:21:40.874Z,21.57
2022-11-22T03:24:11.227Z,21.66
2022-11-22T03:26:42.047Z,21.65
2022-11-22T03:29:13.400Z,21.78
2022-11-22T03:31:44.405Z,21.89
2022-11-22T03:34:17.719Z,22.29
2022-11-22T03:36:48.665Z,22.19
2022-11-22T03:39:19.792Z,22.17
2022-11-22T03:41:50.761Z,22.06
2022-11-22T03:44:21.898Z,22.15
2022-11-22T03:46:55.052Z,22.29
2022-11-22T03:49:26.002Z,22.39
2022-11-22T03:51:56.941Z,22.49
2022-11-22T03:54:28.135Z,22.57
2022-11-22T03:56:59.117Z,22.62
2022-11-22T03:59:30.593Z,22.35
2022-11-22T04:02:01.125Z,22.25
2022-11-22T04:04:32.167Z,22.22
2022-11-22T04:07:02.925Z,22.17
2022-11-22T04:09:34.290Z,22.40
2022-11-22T04:12:08.336Z,22.19
2022-11-22T04:15:00.121Z,22.15
2022-11-22T04:17:49.459Z,22.44
2022-11-22T04:20:48.028Z,22.63
2022-11-22T04:23:21.417Z,22.62
2022-11-22T04:25:56.447Z,22.52
2022-11-22T04:28:46.977Z,22.19
2022-11-22T04:31:36.740Z,22.31
2022-11-22T04:34:07.484Z,22.22
2022-11-22T04:36:38.847Z,22.30
2022-11-22T04:39:09.586Z,22.09
2022-11-22T04:41:40.651Z,22.28
2022-11-22T04:44:30.023Z,22.18
2022-11-22T04:47:00.806Z,22.18
2022-11-22T04:49:32.033Z,22.15
2022-11-22T04:52:21.504Z,22.62
2022-11-22T04:54:52.482Z,22.59
2022-11-22T04:57:23.317Z,22.48
2022-11-22T04:59:54.534Z,22.18
2022-11-22T05:02:25.564Z,22.28
2022-11-22T05:04:56.547Z,21.99
2022-11-22T05:07:30.344Z,22.18
2022-11-22T05:10:01.606Z,22.05
2022-11-22T05:12:33.368Z,22.19
2022-11-22T05:15:04.447Z,22.35
2022-11-22T05:17:35.188Z,22.10
2022-11-22T05:20:10.629Z,22.09
2022-11-22T05:22:59.887Z,22.06
2022-11-22T05:25:31.222Z,22.07
2022-11-22T05:28:01.999Z,22.07
2022-11-22T05:30:34.366Z,21.98
2022-11-22T05:33:05.290Z,21.91
2022-11-22T05:35:37.692Z,21.88
2022-11-22T05:38:08.774Z,21.81
2022-11-22T05:40:39.552Z,21.76
2022-11-22T05:43:10.407Z,21.84
2022-11-22T05:45:41.533Z,21.56
2022-11-22T05:48:12.335Z,21.44
2022-11-22T05:50:43.128Z,21.42
2022-11-22T05:53:13.957Z,21.46
2022-11-22T05:55:44.755Z,21.54
2022-11-22T05:58:15.690Z,21.51
2022-11-22T06:00:46.946Z,21.52
2022-11-22T06:03:17.705Z,21.73
2022-11-22T06:05:54.256Z,22.01
2022-11-22T06:08:25.440Z,21.75
2022-11-22T06:10:56.425Z,21.67
2022-11-22T06:13:27.855Z,21.64
2022-11-22T06:16:02.230Z,21.55
2022-11-22T06:18:33.281Z,21.71
2022-11-22T06:21:08.254Z,21.72
2022-11-22T06:23:39.008Z,21.71
2022-11-22T06:26:21.322Z,21.59
2022-11-22T06:28:52.753Z,21.56
2022-11-22T06:31:26.122Z,21.46
2022-11-22T06:34:01.824Z,21.60
2022-11-22T06:36:34.718Z,21.43
2022-11-22T06:39:05.563Z,21.48
2022-11-22T06:41:38.305Z,21.35
2022-11-22T06:44:11.193Z,21.23
2022-11-22T06:46:42.448Z,21.07
2022-11-22T06:49:13.347Z,21.12
2022-11-22T06:51:44.321Z,20.85
2022-11-22T06:54:15.341Z,20.39
2022-11-22T06:56:46.177Z,19.78
2022-11-22T06:59:17.135Z,19.02
2022-11-22T07:01:48.050Z,17.81
2022-11-22T07:04:18.998Z,17.87
2022-11-22T07:06:50.082Z,18.40
2022-11-22T07:09:20.833Z,18.69
2022-11-22T07:11:51.526Z,18.63
2022-11-22T07:14:22.578Z,18.54
2022-11-22T07:16:53.518Z,18.47
2022-11-22T07:19:24.538Z,17.81
2022-11-22T07:21:55.283Z,18.16
2022-11-22T07:24:26.021Z,18.35
2022-11-22T07:26:56.674Z,18.17
2022-11-22T07:29:27.565Z,18.26
2022-11-22T07:31:58.740Z,18.46
2022-11-22T07:34:29.464Z,18.55
2022-11-22T07:37:04.792Z,18.40
2022-11-22T07:39:38.493Z,18.50
2022-11-22T07:42:09.441Z,18.55
2022-11-22T07:44:40.751Z,18.37
2022-11-22T07:47:11.628Z,18.35
2022-11-22T07:49:42.271Z,18.42
2022-11-22T07:52:13.102Z,18.24
2022-11-22T07:54:43.955Z,18.37
2022-11-22T07:57:14.808Z,18.41
2022-11-22T07:59:47.284Z,18.38
2022-11-22T08:02:17.972Z,18.31
2022-11-22T08:04:48.826Z,18.35
2022-11-22T08:07:19.939Z,18.23
2022-11-22T08:09:50.805Z,18.32
2022-11-22T08:12:22.630Z,18.12
2022-11-22T08:14:53.304Z,18.25
2022-11-22T08:17:24.180Z,18.24
2022-11-22T08:19:55.081Z,18.19
2022-11-22T08:22:25.835Z,18.15
2022-11-22T08:24:56.697Z,18.15
2022-11-22T08:27:27.789Z,18.04
2022-11-22T08:29:58.683Z,18.02
2022-11-22T08:32:30.274Z,17.95
2022-11-22T08:35:01.382Z,17.95
2022-11-22T08:37:32.487Z,18.08
2022-11-22T08:40:03.356Z,18.02
2022-11-22T08:42:34.514Z,18.13
2022-11-22T08:45:05.305Z,18.04
2022-11-22T08:47:36.113Z,17.98
2022-11-22T08:50:08.137Z,18.01
2022-11-22T08:52:38.883Z,18.03
2022-11-22T08:55:10.397Z,18.15
2022-11-22T08:57:41.036Z,18.00
2022-11-22T09:00:12.851Z,18.14
2022-11-22T09:02:42.941Z,18.03
2022-11-22T09:05:13.882Z,17.97
2022-11-22T09:10:35.956Z,17.83
2022-11-22T09:13:06.667Z,17.75
2022-11-22T09:15:37.326Z,17.93
2022-11-22T09:18:08.151Z,17.81
2022-11-22T09:20:38.812Z,17.81
2022-11-22T09:23:09.644Z,17.74
2022-11-22T09:25:40.708Z,17.80
2022-11-22T09:28:14.869Z,17.78
2022-11-22T09:30:45.568Z,17.72
2022-11-22T09:33:16.245Z,17.73
2022-11-22T09:35:47.101Z,17.70
2022-11-22T09:38:17.918Z,17.76
2022-11-22T09:40:49.489Z,17.70
2022-11-22T09:43:33.147Z,17.72
2022-11-22T09:46:25.102Z,17.68
2022-11-22T09:49:13.360Z,17.75
2022-11-22T09:51:51.306Z,17.65
2022-11-22T09:54:29.276Z,17.71
2022-11-22T09:57:02.673Z,17.77
2022-11-22T09:59:38.660Z,17.64
2022-11-22T10:02:43.622Z,17.63
2022-11-22T10:05:28.355Z,17.72
2022-11-22T10:08:08.724Z,17.71
2022-11-22T10:10:44.999Z,17.70
2022-11-22T10:13:24.996Z,17.68
2022-11-22T10:15:58.730Z,17.25
2022-11-22T10:19:03.148Z,16.89
2022-11-22T10:21:34.222Z,16.64
2022-11-22T10:24:05.791Z,16.70
2022-11-22T10:26:37.227Z,16.63
2022-11-22T10:29:29.747Z,16.63
2022-11-22T10:32:19.074Z,16.48
2022-11-22T10:34:58.690Z,16.29
2022-11-22T10:37:36.987Z,16.16
2022-11-22T10:40:35.505Z,16.26
2022-11-22T10:43:27.340Z,16.22
2022-11-22T10:46:06.373Z,16.30
2022-11-22T10:49:18.756Z,16.23
2022-11-22T10:51:48.836Z,16.31
2022-11-22T10:54:48.469Z,16.23
2022-11-22T10:57:28.213Z,16.19
2022-11-22T11:00:24.162Z,16.09
2022-11-22T11:03:00.764Z,16.18
2022-11-22T11:12:19.661Z,16.07
2022-11-22T11:15:04.564Z,16.03
2022-11-22T11:17:40.424Z,16.02
2022-11-22T11:20:28.952Z,15.97
2022-11-22T11:23:14.364Z,15.87
2022-11-22T11:25:47.831Z,15.96
2022-11-22T11:28:29.643Z,16.01
2022-11-22T11:31:09.718Z,15.91
2022-11-22T11:33:42.675Z,15.74
2022-11-22T11:36:23.754Z,15.74
2022-11-22T11:38:59.635Z,15.81
2022-11-22T11:41:36.300Z,15.82
2022-11-22T11:44:28.481Z,15.78
2022-11-22T11:47:00.798Z,15.67
2022-11-22T11:49:36.154Z,15.60
2022-11-22T11:52:09.642Z,15.61
2022-11-22T11:54:44.573Z,15.60
2022-11-22T11:57:21.698Z,15.59
2022-11-22T11:59:53.279Z,15.40
2022-11-22T12:02:26.975Z,15.34
2022-11-22T12:05:06.389Z,15.55
2022-11-22T12:07:37.336Z,15.45
2022-11-22T12:10:42.880Z,15.37
2022-11-22T12:13:22.505Z,15.37
2022-11-22T12:15:57.355Z,15.34
2022-11-22T12:18:40.696Z,15.38
2022-11-22T12:21:35.626Z,15.50
2022-11-22T12:24:57.356Z,15.40
2022-11-22T12:27:27.900Z,15.52
2022-11-22T12:30:00.632Z,15.43
2022-11-22T12:32:43.789Z,15.55
2022-11-22T12:35:16.696Z,15.48
2022-11-22T12:38:19.431Z,15.51
2022-11-22T12:40:53.354Z,15.41
2022-11-22T12:43:23.968Z,15.40
2022-11-22T12:46:00.053Z,15.25
2022-11-22T12:48:36.192Z,15.17
2022-11-22T12:51:18.092Z,15.22
2022-11-22T12:53:50.814Z,15.24
2022-11-22T12:56:31.465Z,15.32
2022-11-22T12:59:08.830Z,15.25
2022-11-22T13:02:05.383Z,15.31
2022-11-22T13:05:00.780Z,15.14
2022-11-22T13:07:39.855Z,15.27
2022-11-22T13:10:41.305Z,15.20
2022-11-22T13:13:39.455Z,15.13
2022-11-22T13:16:12.778Z,15.17
2022-11-22T13:19:12.687Z,15.16
2022-11-22T13:22:20.569Z,15.25
2022-11-22T13:25:12.635Z,15.07
2022-11-22T13:27:49.982Z,14.99
2022-11-22T13:30:28.917Z,14.99
2022-11-22T13:33:02.274Z,14.90
2022-11-22T13:35:38.614Z,14.90
2022-11-22T13:38:15.222Z,14.89
2022-11-22T13:40:47.329Z,15.00
2022-11-22T13:43:22.384Z,15.06
2022-11-22T13:46:03.702Z,15.04
2022-11-22T13:48:43.611Z,15.01
2022-11-22T13:51:21.642Z,15.02
2022-11-22T13:53:54.099Z,15.06
2022-11-22T13:56:25.102Z,15.25
2022-11-22T13:59:20.479Z,15.29
2022-11-22T14:01:51.138Z,15.24
2022-11-22T14:04:32.987Z,15.23
2022-11-22T14:07:13.361Z,15.17
2022-11-22T14:09:58.102Z,15.20
2022-11-22T14:12:52.543Z,15.20
2022-11-22T14:15:50.671Z,15.12
2022-11-22T14:18:39.669Z,15.07
2022-11-22T14:21:28.910Z,15.08
2022-11-22T14:24:12.002Z,15.17
2022-11-22T14:26:59.337Z,15.11
2022-11-22T14:29:53.565Z,15.07
2022-11-22T14:32:27.447Z,14.96
2022-11-22T14:35:07.367Z,14.96
2022-11-22T14:37:58.458Z,14.98
2022-11-22T14:40:42.807Z,14.90
2022-11-22T14:43:20.869Z,14.97
2022-11-22T14:45:57.967Z,14.96
2022-11-22T14:48:34.346Z,14.83
2022-11-22T14:51:17.231Z,14.98
2022-11-22T14:54:06.390Z,14.89
2022-11-22T14:56:37.855Z,14.95
2022-11-22T14:59:30.382Z,14.93
2022-11-22T15:02:51.677Z,14.94
2022-11-22T15:09:22.560Z,14.92
2022-11-22T15:09:53.383Z,14.24
2022-11-22T15:12:13.101Z,12.62
2022-11-22T15:58:17.351Z,12.26
2022-11-22T16:00:48.356Z,12.28
2022-11-22T16:03:27.923Z,12.33
2022-11-22T16:06:11.856Z,12.46
2022-11-22T16:08:50.832Z,12.57
2022-11-22T16:11:34.680Z,12.55
2022-11-22T16:14:06.202Z,12.65
2022-11-22T16:16:37.034Z,12.67
2022-11-22T16:19:24.469Z,12.94
2022-11-22T16:22:02.415Z,12.88
2022-11-22T16:24:34.216Z,13.00
2022-11-22T16:27:13.928Z,13.21
2022-11-22T16:29:53.244Z,13.16
2022-11-22T16:32:24.051Z,13.19
2022-11-22T16:35:08.512Z,13.13
2022-11-22T16:37:48.231Z,13.31
2022-11-22T16:40:19.583Z,13.22
2022-11-22T16:42:50.412Z,13.29
2022-11-22T16:45:23.481Z,13.27
2022-11-22T16:48:16.619Z,13.43
2022-11-22T16:50:47.654Z,13.48
2022-11-22T16:53:18.554Z,13.46
2022-11-22T16:55:49.459Z,13.42
2022-11-22T16:58:25.142Z,13.34
2022-11-22T17:00:58.386Z,13.31
2022-11-22T17:03:35.144Z,13.30
2022-11-22T17:06:05.891Z,13.26
2022-11-22T17:08:36.746Z,13.30
2022-11-22T17:11:07.725Z,13.37
2022-11-22T17:13:38.582Z,13.37
2022-11-22T17:16:10.321Z,13.44
2022-11-22T17:18:41.908Z,13.46
2022-11-22T17:21:37.611Z,13.57
2022-11-22T17:24:18.556Z,13.51
2022-11-22T17:26:49.369Z,13.49
2022-11-22T17:29:48.903Z,13.44
2022-11-22T17:32:17.219Z,13.46
2022-11-22T17:34:48.056Z,13.52
2022-11-22T17:37:18.946Z,13.49
2022-11-22T17:39:53.446Z,13.45
2022-11-22T17:42:25.576Z,13.41
2022-11-22T17:44:55.831Z,13.45
2022-11-22T17:47:26.500Z,13.42
2022-11-22T17:49:57.702Z,13.47
2022-11-22T17:52:28.576Z,13.59
2022-11-22T17:55:04.713Z,13.58
2022-11-22T17:57:37.730Z,13.68
2022-11-22T18:00:10.256Z,13.93
2022-11-22T18:02:41.105Z,14.23
2022-11-22T18:05:12.254Z,14.51
2022-11-22T18:07:43.211Z,14.77
2022-11-22T18:10:13.971Z,14.60
2022-11-22T18:12:58.674Z,14.26
2022-11-22T18:15:35.491Z,14.24
2022-11-22T18:18:06.266Z,14.23
2022-11-22T18:20:38.388Z,14.45
2022-11-22T18:23:08.494Z,14.93
2022-11-22T18:25:39.527Z,14.90
2022-11-22T18:28:10.318Z,14.73
2022-11-22T18:30:43.123Z,14.62
2022-11-22T18:33:14.575Z,14.47
2022-11-22T18:35:55.933Z,14.34
2022-11-22T18:38:27.195Z,14.26
2022-11-22T18:41:02.199Z,13.98
2022-11-22T18:43:33.018Z,13.94
2022-11-22T18:46:04.765Z,13.97
2022-11-22T18:48:36.037Z,13.96
2022-11-22T18:51:11.951Z,13.73
2022-11-22T18:53:43.464Z,13.64
2022-11-22T18:56:18.435Z,13.57
2022-11-22T18:58:50.485Z,13.41
2022-11-22T19:01:21.637Z,13.48
2022-11-22T19:03:52.577Z,13.37
2022-11-22T19:06:23.449Z,13.35
2022-11-22T19:08:54.620Z,13.41
2022-11-22T19:11:25.594Z,13.45
2022-11-22T19:13:56.274Z,13.50
2022-11-22T19:16:30.898Z,13.46
2022-11-22T19:19:01.879Z,13.55
2022-11-22T19:21:33.079Z,13.68
2022-11-22T19:24:04.293Z,13.67
2022-11-22T19:26:35.176Z,13.81
2022-11-22T19:29:06.480Z,13.97
2022-11-22T19:31:38.291Z,14.06
2022-11-22T19:34:09.206Z,14.17
2022-11-22T19:36:41.992Z,14.53
2022-11-22T19:39:14.760Z,14.81
2022-11-22T19:41:46.765Z,15.02
2022-11-22T19:44:17.658Z,15.77
2022-11-22T19:46:48.792Z,16.65
2022-11-22T19:49:19.444Z,16.56
2022-11-22T19:51:50.187Z,16.33
2022-11-22T19:54:21.037Z,16.48
2022-11-22T19:56:51.750Z,16.30
2022-11-22T19:59:22.536Z,16.47
2022-11-22T20:01:53.231Z,16.88
2022-11-22T20:04:24.374Z,17.65
2022-11-22T20:06:55.107Z,17.66
2022-11-22T20:09:26.260Z,17.43
2022-11-22T20:11:57.497Z,17.13
2022-11-22T20:14:28.373Z,17.00
2022-11-22T20:16:59.332Z,16.69
2022-11-22T20:19:34.054Z,16.49
2022-11-22T20:22:05.396Z,16.34
2022-11-22T20:24:36.324Z,16.33
2022-11-22T20:27:07.257Z,16.65
2022-11-22T20:29:38.468Z,17.13
2022-11-22T20:32:09.126Z,17.97
2022-11-22T20:34:39.800Z,17.79
2022-11-22T20:37:10.608Z,18.23
2022-11-22T20:39:41.824Z,18.51
2022-11-22T20:42:33.480Z,18.59
2022-11-22T20:45:09.855Z,18.68
2022-11-22T20:47:40.609Z,18.60
2022-11-22T20:50:11.918Z,19.39
2022-11-22T20:52:42.942Z,18.65
2022-11-22T20:55:14.651Z,18.34
2022-11-22T20:57:45.377Z,18.16
2022-11-22T21:00:17.068Z,17.43
2022-11-22T21:02:47.958Z,16.49
2022-11-22T21:05:18.659Z,15.53
2022-11-22T21:07:49.712Z,15.29
2022-11-22T21:10:20.514Z,15.15
2022-11-22T21:12:51.247Z,15.10
2022-11-22T21:15:22.428Z,14.87
2022-11-22T21:18:22.961Z,15.02
2022-11-22T21:20:44.673Z,15.32
2022-11-22T21:23:15.862Z,15.33
2022-11-22T21:25:46.673Z,15.40
2022-11-22T21:28:17.822Z,15.41
2022-11-22T21:30:48.758Z,15.92
2022-11-22T21:33:19.583Z,17.02
2022-11-22T21:35:50.701Z,18.04
2022-11-22T21:38:28.222Z,18.81
2022-11-22T21:41:24.294Z,19.49
2022-11-22T21:43:57.741Z,19.94
2022-11-22T21:46:28.487Z,20.31
2022-11-22T21:48:59.389Z,20.52
2022-11-22T21:51:30.454Z,21.26
2022-11-22T21:54:02.839Z,21.35
2022-11-22T21:56:33.740Z,21.01
2022-11-22T21:59:04.755Z,20.54
2022-11-22T22:01:35.943Z,20.16
2022-11-22T22:04:07.311Z,20.12
2022-11-22T22:06:42.308Z,19.76
2022-11-22T22:09:15.757Z,19.40
2022-11-22T22:11:49.180Z,19.09
2022-11-22T22:14:20.302Z,17.91
2022-11-22T22:16:51.156Z,17.54
2022-11-22T22:19:22.250Z,18.78
2022-11-22T22:21:53.210Z,19.78
2022-11-22T22:24:24.138Z,20.32
2022-11-22T22:26:55.127Z,20.48
2022-11-22T22:29:26.147Z,21.15
2022-11-22T22:31:56.993Z,21.10
2022-11-22T22:34:27.935Z,21.26
2022-11-22T22:37:02.141Z,21.27
2022-11-22T22:39:33.434Z,21.68
2022-11-22T22:42:04.817Z,21.56
2022-11-22T22:44:35.666Z,21.01
2022-11-22T22:47:06.562Z,21.18
2022-11-22T22:49:37.662Z,21.10
2022-11-22T22:52:08.617Z,21.21
2022-11-22T22:54:39.745Z,20.67
2022-11-22T22:57:10.768Z,21.35
2022-11-22T22:59:41.616Z,20.57
2022-11-22T23:02:12.669Z,20.09
2022-11-22T23:04:43.571Z,21.34
2022-11-22T23:07:14.280Z,21.48
2022-11-22T23:09:45.490Z,20.95
2022-11-22T23:12:16.261Z,21.14
2022-11-22T23:14:46.941Z,21.57
2022-11-22T23:17:17.640Z,22.01
2022-11-22T23:19:48.412Z,22.60
2022-11-22T23:22:23.299Z,22.27
2022-11-22T23:24:56.638Z,21.08
2022-11-22T23:27:27.451Z,20.99
2022-11-22T23:29:58.708Z,20.23
2022-11-22T23:32:32.925Z,19.68
2022-11-22T23:35:03.839Z,19.04
2022-11-22T23:37:34.683Z,18.24
2022-11-22T23:40:05.441Z,18.57
2022-11-22T23:42:36.584Z,19.53
2022-11-22T23:45:07.568Z,20.24
2022-11-22T23:47:38.712Z,20.38
2022-11-22T23:50:10.405Z,20.79
2022-11-22T23:52:41.276Z,20.23
2022-11-22T23:55:12.052Z,21.23
2022-11-22T23:57:42.793Z,21.58
